Aviation Digital Data Service (ADDS)

Output produced by METARs form (0558 UTC 20 October 2018)
found at http://www.aviationweather.gov/metar/data/
 
VTBD 200530Z VRB02KT 9999 SCT020 BKN040 30/26 Q1010 NOSIG
TAF VTBD 200500Z 2006/2112 10005KT 9999 FEW020 SCT035 
     TEMPO 2007/2013 13010G25KT 5000 TSRA FEW018CB SCT030 BKN100 
     BECMG 2015/2017 00000KT 6000 FEW020 
     BECMG 2101/2103 14008KT 9999
       
VTUO 200500Z 08008KT 030V200 9999 SCT025 32/26 Q1013 NOSIG
TAF VTUO 200500Z 2006/2106 07005KT 8000 BKN025 
     BECMG 2021/2023 5000 BR 
     BECMG 2024/2101 9000 NSW
       
VTCC 200530Z 24003KT 9999 FEW025TCU SCT035 33/23 Q1015 NOSIG
TAF VTCC 200500Z 2006/2112 13005KT 9999 SCT030 
     TEMPO 2008/2015 VRB15G25KT 5000 TSRA FEW025CB BKN030
       
VTCT 200500Z VRB02KT 9999 BKN025 30/25 Q1015 NOSIG
TAF VTCT 200500Z 2006/2112 13005KT 9999 SCT030 
     TEMPO 2008/2015 VRB15G25KT 5000 TSRA FEW025CB BKN030
       
VTSE 200500Z 11005KT 080V170 9999 FEW020 OVC100 29/23 Q1011 TEMPO FM0530 5000 -RA BR
TAF VTSE 200500Z 2006/2106 27008KT 9999 SCT020 BKN100 
     TEMPO 2006/2012 5000 RA SCT015 OVC100
       
VTSS 200530Z 26007KT 9999 SCT020 SCT100 31/24 Q1010 NOSIG
TAF VTSS 200500Z 2006/2106 24008KT 9999 SCT020 SCT100 
     TEMPO 2007/2012 VRB15KT 5000 TSRA FEW016CB SCT018 BKN100
       
VTPH 200500Z 00000KT 8000 4000S -SHRA FEW018CB SCT060 BKN100 26/25 Q1011 TEMPO TL0530 5000 TSRA
TAF VTPH 200500Z 2006/2106 08008KT 8000 FEW020 SCT035 
     TEMPO 2006/2012 VRB15KT 5000 TSRA FEW020 SCT030 BKN100 
     BECMG 2016/2018 00000KT 5000 BR 
     BECMG 2102/2104 10005KT 8000 NSW
       
VTUK 200500Z 06009KT 030V110 9999 BKN035 33/23 Q1013 NOSIG
TAF VTUK 200500Z 2006/2106 06010KT 9999 SCT030 SCT100 
     TEMPO 2010/2013 VRB15KT 6000 -TSRA FEW018CB SCT030 SCT100 
     TEMPO 2017/2021 VRB12KT 5000 TSRA FEW018CB BKN030 BKN080
       
VTSG 200500Z 01012KT 340V040 9999 VCSH FEW018TCU BKN020 27/23 Q1012 NOSIG
TAF VTSG 200500Z 2006/2106 24006KT 9999 BKN020 
     TEMPO 2006/2010 VRB15G30KT 5000 TSRA FEW018CB SCT020 BKN100 
     BECMG 2012/2014 VRB02KT 8000 
     BECMG 2100/2102 24006KT 9999
       
VTCL 200500Z VRB02KT 9999 BKN035 34/24 Q1013 NOSIG
TAF VTCL 200500Z 2006/2106 13005KT 9999 SCT030 
     TEMPO 2008/2015 VRB15G25KT 5000 TSRA FEW025CB BKN030 
       
VTUL 200500Z VRB03KT 9999 BKN030 BKN060 31/24 Q1014 NOSIG
TAF VTUL 200500Z 2006/2106 08005KT 9999 BKN030 BKN080 
     BECMG 2012/2014 16005KT 9000 SCT025 SCT100 
     TEMPO 2014/2020 VRB12KT 5000 TSRA FEW018CB BKN025 BKN080 
     BECMG 2021/2023 VRB02KT 0500 FG FEW009 BKN020 BKN100 
     BECMG 2101/2103 10005KT 8000 NSW
       
VTCH 200500Z 24003KT 110V260 9999 FEW020TCU 30/22 Q1013 NOSIG
TAF VTCH 200500Z 2006/2106 13005KT 9999 SCT030 
     TEMPO 2008/2015 VRB15G25KT 5000 TSRA FEW025CB BKN030 
       
VTPM 200500Z 34004KT 270V050 9999 SCT028 SCT100 31/24 Q1013 NOSIG
TAF VTPM 200500Z 2006/2106 13005KT 9999 SCT030 
     TEMPO 2008/2015 VRB15G25KT 5000 TSRA FEW025CB BKN030 
       
VTUW 200500Z VRB03KT 9999 SCT040 32/22 Q1013 NOSIG
TAF VTUW 200500Z 2006/2106 07010KT 9999 SCT030 
     TEMPO 2021/2102 10010KT 7000 -RA SCT030 BKN080 
     BECMG 2102/2104 10005KT 9999 SCT030 BKN100
       
VTUQ 200500Z 05005KT 350V100 9000 SCT025 BKN100 30/26 Q1013 NOSIG
TAF VTUQ 200500Z 2006/2106 05005KT 9000 FEW030 
     BECMG 2020/2022 5000 BR 
     BECMG 2023/2101 9000 NSW
       
VTSF 200500Z VRB02KT 9999 FEW020 BKN100 29/24 Q1011 NOSIG
TAF VTSF 200500Z 2006/2106 05004KT 9999 SCT020 BKN100 
     TEMPO 2006/2012 VRB15KT 5000 TSRA FEW016CB SCT018 BKN100
       
VTCN 200500Z 25003KT 170V330 9999 FEW025 32/22 Q1013 NOSIG
TAF VTCN 200500Z 2006/2106 13005KT 9999 SCT030 
     TEMPO 2008/2015 VRB15G25KT 5000 TSRA FEW025CB BKN030 
       
VTSC 200500Z 04008KT 360V060 9999 FEW022 30/24 Q1011 NOSIG
TAF VTSC 200500Z 2006/2106 19004KT 9999 SCT020 SCT100 
     TEMPO 2007/2013 VRB15KT 5000 TSRA FEW016CB SCT018 BKN100
       
VTSK 200400Z 26004KT 9999 FEW025 SCT100 30/23 Q1012
TAF VTSK 200500Z 2006/2106 24008KT 9999 SCT020 SCT100 
     TEMPO 2006/2012 VRB15KT 5000 TSRA FEW016CB SCT018 BKN100
       
VTPB 200500Z 05004KT 350V100 9999 BKN030 31/22 Q1012 NOSIG
TAF VTPB 200500Z 2006/2106 14005KT 9999 SCT030 
     TEMPO 2008/2015 VRB15G25KT 5000 TSRA FEW025CB BKN030 
       
VTPP 200500Z 15003KT 9999 SCT020 31/23 Q1012 NOSIG
TAF VTPP 200500Z 2006/2106 14005KT 9999 SCT030 
     TEMPO 2008/2015 VRB15G25KT 5000 TSRA FEW025CB BKN030 
       
VTCP 200500Z 32003KT 9999 FEW025 35/24 Q1013 NOSIG
TAF VTCP 200500Z 2006/2106 13005KT 9999 SCT030 
     TEMPO 2008/2015 VRB15G25KT 5000 TSRA FEW025CB BKN030 
       
VTSP 200530Z VRB03KT 9000 4000E -RA SCT018 BKN100 26/24 Q1011 NOSIG
TAF VTSP 200500Z 2006/2112 26006KT 9000 SCT018 BKN100 
     TEMPO 2008/2012 6000 -RA FEW018 SCT020 BKN100 
     BECMG 2010/2012 VRB02KT 8000 
     TEMPO 2014/2020 6000 -RA FEW018 SCT020 BKN100 
     BECMG 2100/2002 26008KT 9999
       
VTSR 200500Z VRB02KT 9999 BKN020 28/24 Q1011
TAF VTSR 200500Z 2006/2106 24006KT 9999 BKN020 
     TEMPO 2006/2012 VRB15G30KT 5000 TSRA FEW018CB SCT020 BKN100 
     BECMG 2014/2016 VRB02KT 8000
       
VTUV 200500Z 09008KT 050V130 9999 SCT025 32/22 Q1012 NOSIG
TAF VTUV 200500Z 2006/2106 08008KT 9000 FEW030 
     TEMPO 2014/2018 VRB15KT 5000 TSRA FEW018CB BKN025 BKN100 
     BECMG 2022/2024 5000 BR 
     BECMG 2100/2102 9000 NSW
       
VTUI 200500Z VRB05KT 9999 FEW030 32/22 Q1013 NOSIG
TAF VTUI 200500Z 2006/2106 07010KT 9999 SCT030 
     TEMPO 2021/2102 10010KT 6000 -RA SCT030 BKN080 
     BECMG 2102/2104 10005KT 9999 BKN030 BKN100
       
VTSM 200530Z VRB02KT 8000 -RA FEW018 SCT100 28/25 Q1011 NOSIG
TAF VTSM 200500Z 2006/2106 31005KT 9999 SCT020 BKN100 
     TEMPO 2006/2012 5000 RA SCT015 OVC100 
     TEMPO 2020/2102 5000 RA SCT015 OVC100
       
VTSH 200500Z 27004KT 9999 FEW018TCU 31/24 Q1010 NOSIG
TAF VTSH 200500Z 2006/2106 24008KT 9999 SCT020 SCT100 
     TEMPO 2007/2012 VRB15KT 5000 TSRA FEW016CB SCT018 BKN100
       
VTPO 200500Z 05003KT 9999 BKN025 32/25 Q1012 NOSIG
TAF VTPO 200500Z 2006/2106 14005KT 9999 SCT030 
     TEMPO 2008/2015 VRB15G25KT 5000 TSRA FEW025CB BKN030 
       
VTSB 200500Z 25006KT 9999 SCT010 BKN100 26/24 Q1012
TAF VTSB 200500Z 2006/2106 27005KT 9999 SCT020 BKN100 
     TEMPO 2006/2012 5000 RA SCT015 OVC100
       
TAF VTPT 200500Z 2006/2106 13005KT 9999 SCT030 
     TEMPO 2008/2015 VRB15G25KT 5000 TSRA FEW025CB BKN030 
       
VTST 200500Z 23006KT 8000 -RA FEW020 SCT023 27/25 Q1010 NOSIG
TAF VTST 200500Z 2006/2106 24006KT 9999 SCT020 
     TEMPO 2006/2012 VRB15G30KT 5000 TSRA FEW018CB SCT020 BKN100 
     BECMG 2014/2016 VRB02KT 8000 
     BECMG 2100/2102 18006KT 9999
       
VTBU 200530Z 01007KT 7000 FEW018CB BKN100 29/24 Q1010 NOSIG
TAF VTBU 192300Z 2000/2024 02004KT 7000 FEW020 SCT100 
     TEMPO 2001/2007 VRB12KT 4000 TSRA FEW018CB SCT035 BKN100 
     BECMG 2007/2009 15008KT 6000
       
VTUU 200500Z 11007KT 020V140 9999 FEW025 32/23 Q1012 NOSIG
TAF VTUU 200500Z 2006/2106 06008KT 9000 FEW030 
     TEMPO 2014/2018 VRB15KT 5000 TSRA FEW018CB BKN025 BKN100 
     BECMG 2022/2024 5000 BR 
     BECMG 2100/2102 9000 NSW
       
VTUD 200500Z VRB03KT 9999 SCT030 32/23 Q1013 NOSIG
TAF VTUD 200500Z 2006/2106 06010KT 9999 SCT030 
     BECMG 2011/2013 16005KT 9000 FEW030 SCT100 
     TEMPO 2021/2102 VRB12KT 5000 TSRA FEW018CB BKN030 BKN080